This is the latest recevied weather packets stored in our database for station/object KC1OEK-13. If no packets are shown the sender has not sent any weather packets the latest 10 day(s).
| Time | Temp. | Humidity | Pressure | Rain* | Wind** | Luminosity | Snow |
|---|---|---|---|---|---|---|---|
| 1777864346 | 3.89° C | 71% | 1013.5 hPa | 0 mm | - | 0 W/m² | - |
| 1777863739 | 3.89° C | 69% | 1013.2 hPa | 0 mm | - | 0 W/m² | - |
| 1777843435 | 12.22° C | 34% | 1011 hPa | 0 mm | - | 298 W/m² | - |
| 1777843131 | 12.22° C | 35% | 1011.2 hPa | 0 mm | - | 137 W/m² | - |
| 1777841916 | 13.33° C | 35% | 1011.1 hPa | 0 mm | - | 367 W/m² | - |
| 1777840704 | 13.33° C | 35% | 1010.9 hPa | 0 mm | - | 437 W/m² | - |
| 1777840098 | 13.33° C | 36% | 1011.1 hPa | 0 mm | - | 496 W/m² | - |
| 1777839796 | 12.78° C | 37% | 1011 hPa | 0 mm | - | 478 W/m² | - |
| 1777839494 | 13.33° C | 37% | 1011.2 hPa | 0 mm | - | 489 W/m² | - |
| 1777839190 | 13.33° C | 36% | 1011 hPa | 0 mm | - | 477 W/m² | - |
| 1777837978 | 12.78° C | 36% | 1011 hPa | 0 mm | - | 585 W/m² | - |
| 1777836459 | 11.67° C | 36% | 1011.1 hPa | 0 mm | - | 762 W/m² | - |
| 1777835852 | 11.67° C | 40% | 1010.9 hPa | 0 mm | - | 253 W/m² | - |
| 1777835549 | 11.11° C | 38% | 1011.2 hPa | 0 mm | - | 335 W/m² | - |
| 1777835246 | 12.22° C | 36% | 1011.3 hPa | 0 mm | - | 280 W/m² | - |
| 1777834942 | 11.67° C | 36% | 1011.1 hPa | 0 mm | - | 392 W/m² | - |
| 1777834335 | 12.78° C | 37% | 1011 hPa | 0 mm | - | 826 W/m² | - |
| 1777833120 | 11.67° C | 39% | 1011.2 hPa | 0 mm | - | 271 W/m² | - |
| 1777832818 | 11.67° C | 38% | 1011.1 hPa | 0 mm | - | 322 W/m² | - |
| 1777832516 | 11.67° C | 37% | 1011.2 hPa | 0 mm | - | 910 W/m² | - |
| 1777831606 | 12.22° C | 37% | 1011.1 hPa | 0 mm | - | 351 W/m² | - |
| 1777829484 | 11.11° C | 38% | 1011.2 hPa | 0 mm | - | 350 W/m² | - |
| 1777827363 | 11.11° C | 41% | 1011.2 hPa | 0 mm | - | 259 W/m² | - |
| 1777826453 | 10° C | 42% | 1011.5 hPa | 0 mm | - | 603 W/m² | - |
| 1777825847 | 10° C | 44% | 1011.5 hPa | 0 mm | - | 441 W/m² | - |
* Rain latest hour (hover to see other rain measurements)
** Current wind speed in m/s (hover to see current wind gust speed)